createdAt,value
2023-01-25T00:00:24.368Z,102323.75
2023-01-25T00:02:53.747Z,102310.69
2023-01-25T00:05:23.083Z,102321.09
2023-01-25T00:07:52.396Z,102317.59
2023-01-25T00:10:23.460Z,102300.16
2023-01-25T00:12:52.730Z,102267.00
2023-01-25T00:15:21.850Z,102320.31
2023-01-25T00:17:51.127Z,102307.19
2023-01-25T00:20:20.791Z,102303.72
2023-01-25T00:22:50.223Z,102311.63
2023-01-25T00:25:19.714Z,102292.38
2023-01-25T00:27:50.289Z,102309.84
2023-01-25T00:30:19.643Z,102283.66
2023-01-25T00:32:54.266Z,102226.88
2023-01-25T00:35:23.624Z,102301.06
2023-01-25T00:37:55.200Z,102311.44
2023-01-25T00:40:24.534Z,102303.56
2023-01-25T00:42:55.977Z,102300.00
2023-01-25T00:45:25.426Z,102268.63
2023-01-25T00:47:57.635Z,102297.47
2023-01-25T00:50:27.323Z,102300.19
2023-01-25T00:52:56.562Z,102295.78
2023-01-25T00:55:25.968Z,102295.81
2023-01-25T00:57:58.638Z,102278.28
2023-01-25T01:00:27.924Z,102289.75
2023-01-25T01:02:57.272Z,102292.38
2023-01-25T01:05:27.704Z,102295.81
2023-01-25T01:07:59.148Z,102280.13
2023-01-25T01:10:28.480Z,102285.41
2023-01-25T01:12:59.349Z,102287.06
2023-01-25T01:15:28.525Z,102301.13
2023-01-25T01:17:57.849Z,102289.78
2023-01-25T01:20:27.407Z,102218.13
2023-01-25T01:22:56.752Z,102302.81
2023-01-25T01:25:26.003Z,102293.97
2023-01-25T01:27:55.373Z,102258.25
2023-01-25T01:30:26.379Z,102297.53
2023-01-25T01:32:56.225Z,102254.81
2023-01-25T01:35:26.808Z,102300.22
2023-01-25T01:37:56.316Z,102301.97
2023-01-25T01:40:26.402Z,102292.38
2023-01-25T01:43:01.006Z,102288.78
2023-01-25T01:45:56.389Z,102292.28
2023-01-25T01:48:39.855Z,102287.84
2023-01-25T01:51:17.581Z,102280.06
2023-01-25T01:53:54.150Z,102285.34
2023-01-25T01:56:28.906Z,102277.44
2023-01-25T01:59:04.093Z,102264.34
2023-01-25T02:01:36.332Z,102243.34
2023-01-25T02:04:08.532Z,102284.47
2023-01-25T02:06:45.373Z,102214.63
2023-01-25T02:09:17.886Z,102269.66
2023-01-25T02:11:48.570Z,102238.19
2023-01-25T02:14:18.947Z,102248.66
2023-01-25T02:16:49.606Z,102262.59
2023-01-25T02:19:31.821Z,102260.09
2023-01-25T02:22:07.878Z,102246.00
2023-01-25T02:24:39.998Z,102245.09
2023-01-25T02:27:10.464Z,102236.47
2023-01-25T02:29:40.919Z,102257.38
2023-01-25T02:32:10.257Z,102235.66
2023-01-25T02:34:39.584Z,102246.88
2023-01-25T02:37:14.447Z,102251.25
2023-01-25T02:39:44.145Z,102239.94
2023-01-25T02:42:14.762Z,102191.94
2023-01-25T02:44:44.909Z,102251.34
2023-01-25T02:47:14.239Z,102265.31
2023-01-25T02:49:43.884Z,102251.34
2023-01-25T02:52:13.397Z,102246.09
2023-01-25T02:54:42.503Z,102257.44
2023-01-25T02:57:11.708Z,102251.34
2023-01-25T02:59:46.559Z,102253.94
2023-01-25T03:02:17.298Z,102252.22
2023-01-25T03:04:46.459Z,102228.63
2023-01-25T03:07:16.212Z,102252.16
2023-01-25T03:09:46.867Z,102246.09
2023-01-25T03:12:16.482Z,102252.13
2023-01-25T03:14:48.993Z,102243.44
2023-01-25T03:17:20.984Z,102245.13
2023-01-25T03:19:50.585Z,102255.66
2023-01-25T03:22:20.351Z,102255.66
2023-01-25T03:24:50.004Z,102242.59
2023-01-25T03:27:20.722Z,102262.09
2023-01-25T03:29:55.746Z,102243.47
2023-01-25T03:32:28.846Z,102237.38
2023-01-25T03:34:59.223Z,102259.22
2023-01-25T03:37:31.538Z,102257.47
2023-01-25T03:40:02.183Z,102253.97
2023-01-25T03:42:32.865Z,102262.69
2023-01-25T03:45:03.440Z,102260.97
2023-01-25T03:47:33.454Z,102260.94
2023-01-25T03:50:03.008Z,102254.84
2023-01-25T03:52:38.662Z,102264.44
2023-01-25T03:55:10.972Z,102208.53
2023-01-25T03:57:43.767Z,102220.72
2023-01-25T04:00:15.891Z,102266.13
2023-01-25T04:02:47.971Z,102273.19
2023-01-25T04:05:20.998Z,102215.53
2023-01-25T04:07:50.524Z,102221.66
2023-01-25T04:10:25.881Z,102265.31
2023-01-25T04:12:56.687Z,102258.28
2023-01-25T04:15:27.972Z,102269.66
2023-01-25T04:18:01.797Z,102262.63
2023-01-25T04:20:31.539Z,102242.56
2023-01-25T04:23:01.579Z,102256.59
2023-01-25T04:25:37.961Z,102237.38
2023-01-25T04:28:13.238Z,102257.47
2023-01-25T04:30:44.419Z,102262.69
2023-01-25T04:33:14.819Z,102254.81
2023-01-25T04:35:45.667Z,102262.69
2023-01-25T04:38:18.271Z,102248.72
2023-01-25T04:40:48.537Z,102274.97
2023-01-25T04:43:18.365Z,102272.31
2023-01-25T04:45:49.540Z,102242.63
2023-01-25T04:48:25.710Z,102224.28
2023-01-25T04:50:59.621Z,102255.72
2023-01-25T04:53:29.580Z,102260.97
2023-01-25T04:56:02.486Z,102268.84
2023-01-25T04:58:36.792Z,102274.94
2023-01-25T05:01:08.145Z,102267.03
2023-01-25T05:03:37.588Z,102257.47
2023-01-25T05:06:10.927Z,102219.03
2023-01-25T05:08:40.183Z,102273.19
2023-01-25T05:11:09.813Z,102258.34
2023-01-25T05:14:03.280Z,102270.59
2023-01-25T05:16:38.233Z,102248.72
2023-01-25T05:19:10.670Z,102251.28
2023-01-25T05:22:01.875Z,102257.41
2023-01-25T05:24:41.806Z,102253.94
2023-01-25T05:27:14.429Z,102161.41
2023-01-25T05:30:08.973Z,102257.47
2023-01-25T05:32:56.064Z,102260.06
2023-01-25T05:35:27.044Z,102253.97
2023-01-25T05:37:58.966Z,102251.34
2023-01-25T05:40:29.106Z,102205.06
2023-01-25T05:43:02.586Z,102260.94
2023-01-25T05:45:33.777Z,102263.53
2023-01-25T05:48:06.299Z,102264.44
2023-01-25T05:50:36.226Z,102267.00
2023-01-25T05:53:08.778Z,102256.56
2023-01-25T05:55:39.840Z,102263.56
2023-01-25T05:58:12.617Z,102270.53
2023-01-25T06:00:42.279Z,102271.38
2023-01-25T06:03:17.226Z,102263.53
2023-01-25T06:05:46.986Z,102269.69
2023-01-25T06:08:16.270Z,102269.69
2023-01-25T06:10:49.432Z,102260.97
2023-01-25T06:13:18.689Z,102261.78
2023-01-25T06:15:53.635Z,102260.94
2023-01-25T06:18:50.327Z,102256.56
2023-01-25T06:21:38.398Z,102253.09
2023-01-25T06:24:08.525Z,102262.69
2023-01-25T06:26:38.136Z,102202.44
2023-01-25T06:29:08.243Z,102125.63
2023-01-25T06:31:37.535Z,102263.50
2023-01-25T06:34:08.765Z,102233.81
2023-01-25T06:36:38.340Z,102259.09
2023-01-25T06:39:07.664Z,102193.72
2023-01-25T06:41:36.852Z,102257.44
2023-01-25T06:44:06.688Z,102243.50
2023-01-25T06:46:36.407Z,102243.50
2023-01-25T06:49:07.117Z,102238.25
2023-01-25T06:51:36.363Z,102240.00
2023-01-25T06:54:05.908Z,102257.44
2023-01-25T06:56:35.565Z,102240.00
2023-01-25T06:59:04.872Z,102247.88
2023-01-25T07:01:35.115Z,102251.34
2023-01-25T07:04:04.876Z,102227.75
2023-01-25T07:06:36.143Z,102201.56
2023-01-25T07:09:07.262Z,102250.47
2023-01-25T07:11:37.206Z,102243.47
2023-01-25T07:14:07.024Z,102259.22
2023-01-25T07:16:38.772Z,102259.22
2023-01-25T07:19:09.225Z,102257.47
2023-01-25T07:21:40.446Z,102247.81
2023-01-25T07:24:14.772Z,102248.69
2023-01-25T07:26:44.555Z,102253.09
2023-01-25T07:29:15.830Z,102212.06
2023-01-25T07:31:46.171Z,102215.53
2023-01-25T07:34:15.594Z,102245.22
2023-01-25T07:36:47.121Z,102165.78
2023-01-25T07:39:17.291Z,102248.66
2023-01-25T07:41:47.824Z,102242.53
2023-01-25T07:44:21.015Z,102242.53
2023-01-25T07:46:56.935Z,102229.44
2023-01-25T07:49:26.536Z,102234.66
2023-01-25T07:51:57.189Z,102240.72
2023-01-25T07:54:26.729Z,102234.69
2023-01-25T07:56:57.992Z,102227.72
2023-01-25T07:59:28.053Z,102228.63
2023-01-25T08:01:58.197Z,102228.56
2023-01-25T08:04:27.940Z,102217.25
2023-01-25T08:07:01.618Z,102242.59
2023-01-25T08:09:30.901Z,102239.06
2023-01-25T08:12:35.947Z,102244.34
2023-01-25T08:15:10.227Z,102225.13
2023-01-25T08:17:40.488Z,102201.53
2023-01-25T08:20:12.702Z,102219.88
2023-01-25T08:22:43.381Z,102200.63
2023-01-25T08:25:12.789Z,102238.16
2023-01-25T08:27:42.003Z,102233.78
2023-01-25T08:30:13.132Z,102217.06
2023-01-25T08:32:42.581Z,102213.56
2023-01-25T08:35:13.667Z,102139.41
2023-01-25T08:37:46.695Z,102091.50
2023-01-25T08:40:16.110Z,102227.69
2023-01-25T08:42:46.127Z,102229.44
2023-01-25T08:45:20.126Z,102062.75
2023-01-25T08:47:53.727Z,102079.31
2023-01-25T08:50:23.405Z,102234.66
2023-01-25T08:52:55.223Z,102205.84
2023-01-25T08:55:24.628Z,102201.53
2023-01-25T08:57:56.400Z,102239.91
2023-01-25T09:00:26.246Z,102213.69
2023-01-25T09:02:56.454Z,102217.16
2023-01-25T09:05:26.576Z,102236.31
2023-01-25T09:07:57.396Z,102239.84
2023-01-25T09:10:26.932Z,102222.38
2023-01-25T09:12:56.585Z,102229.41
2023-01-25T09:15:26.045Z,102226.78
2023-01-25T09:17:57.240Z,102191.03
2023-01-25T09:20:27.506Z,102215.50
2023-01-25T09:22:58.795Z,102202.41
2023-01-25T09:25:28.304Z,102185.78
2023-01-25T09:27:57.900Z,102216.31
2023-01-25T09:30:40.840Z,102225.91
2023-01-25T09:33:26.823Z,102180.56
2023-01-25T09:35:56.621Z,102219.00
2023-01-25T09:38:27.978Z,102204.19
2023-01-25T09:41:13.904Z,102204.94
2023-01-25T09:44:14.764Z,102208.44
2023-01-25T09:46:49.094Z,102198.75
2023-01-25T09:49:23.536Z,102209.94
2023-01-25T09:52:05.625Z,101977.22
2023-01-25T09:54:47.007Z,102203.06
2023-01-25T09:57:20.904Z,102179.41
2023-01-25T09:59:53.044Z,102194.53
2023-01-25T10:02:37.460Z,102181.41
2023-01-25T10:05:13.762Z,102170.72
2023-01-25T10:07:55.078Z,102181.03
2023-01-25T10:10:34.616Z,102135.69
2023-01-25T10:13:04.909Z,102158.28
2023-01-25T10:15:41.693Z,102141.06
2023-01-25T10:18:22.473Z,102117.50
2023-01-25T10:20:58.511Z,102161.13
2023-01-25T10:23:40.347Z,102134.88
2023-01-25T10:26:20.412Z,102159.25
2023-01-25T10:28:56.035Z,102155.00
2023-01-25T10:31:32.637Z,102147.19
2023-01-25T10:34:12.932Z,102128.81
2023-01-25T10:36:43.906Z,102147.31
2023-01-25T10:39:13.572Z,102142.00
2023-01-25T10:41:48.298Z,102135.06
2023-01-25T10:44:24.784Z,102117.59
2023-01-25T10:47:01.103Z,102114.84
2023-01-25T10:49:41.454Z,102111.34
2023-01-25T10:52:18.078Z,102119.16
2023-01-25T10:54:50.387Z,102117.47
2023-01-25T10:57:23.858Z,102091.22
2023-01-25T10:59:54.674Z,102086.00
2023-01-25T11:02:45.169Z,102106.94
2023-01-25T11:05:27.091Z,102107.81
2023-01-25T11:07:56.982Z,102105.31
2023-01-25T11:10:33.985Z,102097.56
2023-01-25T11:13:26.635Z,101961.47
2023-01-25T11:15:58.551Z,102072.03
2023-01-25T11:18:31.741Z,102086.03
2023-01-25T11:21:08.973Z,102054.44
2023-01-25T11:23:38.529Z,102074.44
2023-01-25T11:26:17.750Z,102042.38
2023-01-25T11:28:49.775Z,102069.97
2023-01-25T11:31:24.251Z,102090.81
2023-01-25T11:33:53.874Z,102083.75
2023-01-25T11:36:31.767Z,102044.53
2023-01-25T11:39:16.086Z,102050.59
2023-01-25T11:42:04.967Z,102076.66
2023-01-25T11:45:04.639Z,102072.47
2023-01-25T11:47:45.442Z,102032.63
2023-01-25T11:50:21.351Z,102040.31
2023-01-25T11:53:05.675Z,102048.78
2023-01-25T11:55:47.102Z,102063.66
2023-01-25T11:58:39.246Z,102067.06
2023-01-25T12:01:18.767Z,102068.81
2023-01-25T12:04:15.490Z,102062.81
2023-01-25T12:06:58.618Z,102060.41
2023-01-25T12:09:39.852Z,102036.63
2023-01-25T12:12:20.560Z,102009.66
2023-01-25T12:15:08.593Z,102056.69
2023-01-25T12:17:55.080Z,102055.84
2023-01-25T12:21:00.103Z,102063.81
2023-01-25T12:23:42.299Z,102065.31
2023-01-25T12:26:22.335Z,102029.47
2023-01-25T12:28:58.686Z,102059.97
2023-01-25T12:31:37.493Z,102058.00
2023-01-25T12:34:13.033Z,102024.84
2023-01-25T12:36:46.089Z,102056.97
2023-01-25T12:39:22.081Z,102029.94
2023-01-25T12:41:55.207Z,102008.25
2023-01-25T12:44:29.132Z,102051.06
2023-01-25T12:47:06.162Z,102050.06
2023-01-25T12:49:42.329Z,102030.09
2023-01-25T12:52:22.776Z,102019.53
2023-01-25T12:54:56.970Z,102057.41
2023-01-25T12:57:33.050Z,102060.00
2023-01-25T13:00:10.480Z,101995.25
2023-01-25T13:03:08.831Z,102044.63
2023-01-25T13:05:43.463Z,102049.44
2023-01-25T13:08:32.099Z,102024.97
2023-01-25T13:11:13.378Z,102013.47
2023-01-25T13:13:43.919Z,102029.81
2023-01-25T13:16:41.547Z,102042.06
2023-01-25T16:30:45.802Z,101951.09
2023-01-25T16:33:15.786Z,101769.97
2023-01-25T16:35:45.958Z,101937.16
2023-01-25T16:38:15.120Z,101953.47
2023-01-25T16:40:45.027Z,101944.94
2023-01-25T16:43:14.935Z,101833.25
2023-01-25T16:45:46.403Z,101914.06
2023-01-25T16:48:16.913Z,101920.38
2023-01-25T16:50:46.419Z,101943.19
2023-01-25T16:53:15.789Z,101928.31
2023-01-25T16:55:45.207Z,101917.06
2023-01-25T16:58:14.737Z,101936.13
2023-01-25T17:00:46.332Z,101910.88
2023-01-25T17:03:15.711Z,101926.41
2023-01-25T17:05:45.340Z,101884.66
2023-01-25T17:08:14.667Z,101914.84
2023-01-25T17:10:44.907Z,101927.84
2023-01-25T17:13:15.441Z,101935.81
2023-01-25T17:15:46.813Z,101934.25
2023-01-25T17:18:16.291Z,101880.47
2023-01-25T17:20:45.927Z,101935.97
2023-01-25T17:23:15.304Z,101915.88
2023-01-25T17:25:44.806Z,101934.13
2023-01-25T17:28:15.213Z,101944.66
2023-01-25T17:30:46.012Z,101930.56
2023-01-25T17:33:17.845Z,101930.63
2023-01-25T17:35:47.528Z,101902.06
2023-01-25T17:38:18.801Z,101875.78
2023-01-25T17:40:49.773Z,101934.22
2023-01-25T17:43:19.294Z,101927.16
2023-01-25T17:45:50.165Z,101899.38
2023-01-25T17:48:19.700Z,101918.72
2023-01-25T17:50:49.165Z,101917.06
2023-01-25T17:53:18.458Z,101902.28
2023-01-25T17:55:48.450Z,101924.00
2023-01-25T17:58:18.064Z,101919.56
2023-01-25T18:00:48.138Z,101873.44
2023-01-25T18:03:19.399Z,101915.00
2023-01-25T18:05:49.037Z,101915.03
2023-01-25T18:08:18.416Z,101907.97
2023-01-25T18:10:47.725Z,101915.25
2023-01-25T18:13:17.011Z,101929.25
2023-01-25T18:15:46.354Z,101886.38
2023-01-25T18:18:16.331Z,101904.75
2023-01-25T18:20:47.404Z,101936.28
2023-01-25T18:23:17.568Z,101932.78
2023-01-25T18:25:47.852Z,101934.56
2023-01-25T18:28:18.446Z,101934.34
2023-01-25T18:30:55.453Z,101896.81
2023-01-25T18:33:25.614Z,101906.34
2023-01-25T18:36:01.900Z,101877.53
2023-01-25T18:38:33.291Z,101930.84
2023-01-25T18:41:02.701Z,101940.28
2023-01-25T18:43:33.685Z,101908.22
2023-01-25T18:46:03.795Z,101920.53
2023-01-25T18:48:34.654Z,101913.38
2023-01-25T18:51:11.301Z,101921.91
2023-01-25T18:53:43.013Z,101934.28
2023-01-25T18:56:15.315Z,101936.00
2023-01-25T18:58:46.332Z,101921.25
2023-01-25T19:01:17.295Z,101887.19
2023-01-25T19:03:50.228Z,101906.13
2023-01-25T19:06:21.887Z,101887.00
2023-01-25T19:08:54.574Z,101892.22
2023-01-25T19:11:25.077Z,101891.34
2023-01-25T19:13:54.605Z,101918.25
2023-01-25T19:16:25.679Z,101875.56
2023-01-25T19:18:56.099Z,101849.44
2023-01-25T19:21:28.640Z,101910.31
2023-01-25T19:23:58.349Z,101913.84
2023-01-25T19:26:28.368Z,101913.88
2023-01-25T19:28:58.108Z,101904.34
2023-01-25T19:31:32.148Z,101913.00
2023-01-25T19:34:03.483Z,101893.72
2023-01-25T19:36:36.269Z,101908.50
2023-01-25T19:39:10.202Z,101898.88
2023-01-25T19:41:40.714Z,101915.69
2023-01-25T19:44:14.057Z,101876.44
2023-01-25T19:46:44.300Z,101877.25
2023-01-25T19:49:15.204Z,101893.88
2023-01-25T19:51:53.181Z,101873.22
2023-01-25T19:54:24.401Z,101829.56
2023-01-25T19:56:53.983Z,101893.84
2023-01-25T19:59:26.960Z,101884.28
2023-01-25T20:01:56.507Z,101858.28
2023-01-25T20:04:26.432Z,101847.09
2023-01-25T20:07:00.101Z,101871.41
2023-01-25T20:09:29.864Z,101885.28
2023-01-25T20:12:00.992Z,101870.47
2023-01-25T20:14:30.822Z,101843.44
2023-01-25T20:17:00.989Z,101836.72
2023-01-25T20:19:30.619Z,101881.09
2023-01-25T20:22:03.352Z,101890.75
2023-01-25T20:24:32.968Z,101882.13
2023-01-25T20:27:04.258Z,101894.38
2023-01-25T20:29:33.812Z,101814.13
2023-01-25T20:32:05.749Z,101891.50
2023-01-25T20:34:35.236Z,101890.72
2023-01-25T20:37:06.100Z,101862.59
2023-01-25T20:39:36.025Z,101872.94
2023-01-25T20:42:05.874Z,101873.16
2023-01-25T20:44:35.741Z,101866.16
2023-01-25T20:47:05.224Z,101882.56
2023-01-25T20:49:35.415Z,101887.13
2023-01-25T20:52:07.700Z,101877.53
2023-01-25T20:54:38.367Z,101890.69
2023-01-25T20:57:07.866Z,101870.56
2023-01-25T20:59:37.369Z,101880.97
2023-01-25T21:02:06.934Z,101861.78
2023-01-25T21:04:36.157Z,101877.41
2023-01-25T21:07:06.986Z,101854.91
2023-01-25T21:09:36.516Z,101854.00
2023-01-25T21:12:06.234Z,101858.22
2023-01-25T21:14:35.535Z,101868.50
2023-01-25T21:17:05.119Z,101849.50
2023-01-25T21:19:34.493Z,101837.69
2023-01-25T21:22:03.896Z,101869.06
2023-01-25T21:24:34.732Z,101799.41
2023-01-25T21:27:04.410Z,101871.66
2023-01-25T21:29:34.161Z,101869.13
2023-01-25T21:32:04.649Z,101815.97
2023-01-25T21:34:34.393Z,101782.91
2023-01-25T21:37:03.831Z,101855.97
2023-01-25T21:39:35.707Z,101839.22
2023-01-25T21:42:05.297Z,101845.47
2023-01-25T21:44:52.925Z,101847.06
2023-01-25T21:47:31.140Z,101804.41
2023-01-25T21:50:15.415Z,101827.69
2023-01-25T21:52:45.375Z,101835.53
2023-01-25T21:55:18.155Z,101810.97
2023-01-25T21:57:47.765Z,101792.72
2023-01-25T22:00:17.994Z,101819.66
2023-01-25T22:02:47.511Z,101799.72
2023-01-25T22:05:17.310Z,101801.78
2023-01-25T22:07:46.752Z,101818.44
2023-01-25T22:10:17.999Z,101764.56
2023-01-25T22:12:50.738Z,101820.31
2023-01-25T22:15:20.052Z,101805.50
